Back to Top

Language: 

My Weather Underground Personal Weather Station Historical Data with Graphs...

Delerius Weather Station Historical Data
Daily Summary for May 17, 2017 Units:  Metric    English   Both
« Previous Day
Next Day »
Daily Weekly Monthly Yearly Custom
  High: Low: Average:
Temperature: 15.1 °C 9.1 °C 12 °C
Dew Point: 14 °C 8.3 °C 11 °C
Humidity: 97 % 86 % 94 %
Wind Speed: 9.7 km/h 0 km/h 1.9 km/h
Wind Gust: 17.7 km/h - -
Wind:- - WSW
Pressure: 1020.2 hPa 1011.4 hPa -
Precipitation: 6.1 mm    
Historical Graphs
 
 
Tabular Data for May 17, 2017
Time Temperature Dew Point Pressure Wind Wind Speed Wind Gust Humidity Rainfall Rate (Hourly) solar Conditions
00:03 15.1 °C 14 °C 1019.9 hPa Calm     93 % 0 mm 0 W/m2
00:08 15 °C 13.9 °C 1020.2 hPa SW 1.6 km/h 6.4 km/h 93 % 0 mm 0 W/m2
00:13 14.9 °C 13.8 °C 1019.9 hPa West 3.2 km/h 11.3 km/h 93 % 0 mm 0 W/m2
00:18 14.8 °C 13.7 °C 1019.9 hPa WNW 6.4 km/h 14.5 km/h 93 % 0 mm 0 W/m2
00:23 14.5 °C 13.2 °C 1019.9 hPa WNW 8 km/h 14.5 km/h 92 % 0 mm 0 W/m2
00:28 14.2 °C 12.9 °C 1019.9 hPa WNW 8 km/h 12.9 km/h 92 % 0 mm 0 W/m2
00:33 14 °C 12.9 °C 1019.9 hPa WNW 8 km/h 12.9 km/h 93 % 0 mm 0 W/m2
00:38 13.8 °C 12.5 °C 1019.9 hPa WNW 8 km/h 12.9 km/h 92 % 0 mm 0 W/m2
00:43 13.7 °C 12.6 °C 1019.9 hPa WNW 6.4 km/h 12.9 km/h 93 % 0.25 mm 0 W/m2
00:48 13.6 °C 12.5 °C 1019.9 hPa WNW 6.4 km/h 11.3 km/h 93 % 0.25 mm 0 W/m2
00:53 13.5 °C 12.4 °C 1019.9 hPa WNW 6.4 km/h 11.3 km/h 93 % 0.25 mm 0 W/m2
00:58 13.4 °C 12.4 °C 1019.9 hPa West 3.2 km/h 9.7 km/h 94 % 0.51 mm 0 W/m2
01:03 13.4 °C 12.4 °C 1019.5 hPa West 1.6 km/h 8 km/h 94 % 0.51 mm 0 W/m2
01:08 13.4 °C 12.4 °C 1019.5 hPa West 1.6 km/h 4.8 km/h 94 % 0.51 mm 0 W/m2
01:13 13.3 °C 12.3 °C 1019.5 hPa Calm   4.8 km/h 94 % 0.51 mm 0 W/m2
01:18 13.3 °C 12.3 °C 1019.5 hPa Calm   3.2 km/h 94 % 0.51 mm 0 W/m2
01:23 13.3 °C 12.3 °C 1019.5 hPa West 1.6 km/h 3.2 km/h 94 % 0.51 mm 0 W/m2
01:28 13.2 °C 12.3 °C 1019.5 hPa Calm   6.4 km/h 94 % 0.51 mm 0 W/m2
01:33 13.2 °C 12.3 °C 1019.5 hPa West 1.6 km/h 6.4 km/h 94 % 0.51 mm 0 W/m2
01:38 13.2 °C 12.3 °C 1019.5 hPa WNW 3.2 km/h 9.7 km/h 94 % 0.51 mm 0 W/m2
01:43 13.2 °C 12.3 °C 1019.5 hPa WNW 3.2 km/h 9.7 km/h 94 % 0.25 mm 0 W/m2
01:48 13.1 °C 12.2 °C 1019.5 hPa NW 1.6 km/h 6.4 km/h 94 % 0.25 mm 0 W/m2
01:53 13.1 °C 12.2 °C 1019.5 hPa Calm   3.2 km/h 94 % 0 mm 0 W/m2
01:58 13.1 °C 12.2 °C 1019.5 hPa Calm   3.2 km/h 94 % 0 mm 0 W/m2
02:03 13.1 °C 12.3 °C 1019.5 hPa Calm   1.6 km/h 95 % 0 mm 0 W/m2
02:08 13.1 °C 12.3 °C 1019.5 hPa Calm     95 % 0 mm 0 W/m2
02:13 13.1 °C 12.3 °C 1019.5 hPa Calm     95 % 0 mm 0 W/m2
02:18 13.2 °C 12.4 °C 1019.2 hPa Calm     95 % 0 mm 0 W/m2
02:23 13.1 °C 12.3 °C 1019.2 hPa Calm     95 % 0 mm 0 W/m2
02:28 13.1 °C 12.3 °C 1019.2 hPa Calm     95 % 0 mm 0 W/m2
02:33 13.1 °C 12.3 °C 1019.2 hPa Calm     95 % 0 mm 0 W/m2
02:38 13.1 °C 12.3 °C 1019.2 hPa Calm     95 % 0 mm 0 W/m2
02:43 13.1 °C 12.3 °C 1018.8 hPa Calm     95 % 0 mm 0 W/m2
02:48 13.1 °C 12.3 °C 1018.8 hPa Calm     95 % 0 mm 0 W/m2
02:53 13.1 °C 12.3 °C 1018.8 hPa Calm     95 % 0 mm 0 W/m2
02:58 13.1 °C 12.3 °C 1018.8 hPa Calm     95 % 0 mm 0 W/m2
03:03 13.1 °C 12.3 °C 1018.8 hPa Calm     95 % 0 mm 0 W/m2
03:08 13.2 °C 12.4 °C 1018.8 hPa Calm     95 % 0 mm 0 W/m2
03:13 13.1 °C 12.3 °C 1018.8 hPa Calm     95 % 0 mm 0 W/m2
03:18 13.1 °C 12.3 °C 1018.8 hPa Calm     95 % 0 mm 0 W/m2
03:23 13.1 °C 12.3 °C 1018.8 hPa Calm     95 % 0 mm 0 W/m2
03:28 13 °C 12.2 °C 1018.5 hPa Calm   1.6 km/h 95 % 0 mm 0 W/m2
03:29 13.1 °C 12.3 °C 1018.5 hPa Calm   1.6 km/h 95 % 0 mm 0 W/m2
03:34 13 °C 12.2 °C 1018.5 hPa Calm   1.6 km/h 95 % 0 mm 0 W/m2
03:39 12.9 °C 12.1 °C 1018.5 hPa Calm   3.2 km/h 95 % 0 mm 0 W/m2
03:44 12.9 °C 12.1 °C 1018.5 hPa Calm   4.8 km/h 95 % 0 mm 0 W/m2
03:49 12.9 °C 12.1 °C 1018.5 hPa NW 1.6 km/h 8 km/h 95 % 0 mm 0 W/m2
03:54 12.9 °C 12.1 °C 1018.5 hPa NW 1.6 km/h 8 km/h 95 % 0 mm 0 W/m2
03:59 12.8 °C 12 °C 1018.2 hPa Calm   4.8 km/h 95 % 0 mm 0 W/m2
04:00 12.8 °C 12 °C 1018.2 hPa NW 1.6 km/h 4.8 km/h 95 % 0 mm 0 W/m2
04:05 12.8 °C 12 °C 1018.2 hPa NE 1.6 km/h 11.3 km/h 95 % 0 mm 0 W/m2
04:10 12.8 °C 12 °C 1018.5 hPa NE 1.6 km/h 11.3 km/h 95 % 0 mm 0 W/m2
04:15 12.7 °C 11.9 °C 1018.2 hPa Calm   6.4 km/h 95 % 0 mm 0 W/m2
04:20 12.7 °C 11.9 °C 1018.2 hPa NE 1.6 km/h 6.4 km/h 95 % 0 mm 0 W/m2
04:25 12.7 °C 12.1 °C 1018.2 hPa Calm   4.8 km/h 96 % 0 mm 0 W/m2
04:30 12.7 °C 12.1 °C 1018.5 hPa Calm   1.6 km/h 96 % 0 mm 0 W/m2
04:35 12.7 °C 12.1 °C 1018.5 hPa Calm   3.2 km/h 96 % 0 mm 0 W/m2
04:40 12.7 °C 12.1 °C 1018.2 hPa NE 1.6 km/h 4.8 km/h 96 % 0 mm 0 W/m2
04:45 12.7 °C 12.1 °C 1018.2 hPa NE 1.6 km/h 4.8 km/h 96 % 0 mm 0 W/m2
04:50 12.6 °C 12 °C 1018.2 hPa NE 1.6 km/h 6.4 km/h 96 % 0 mm 0 W/m2
04:55 12.6 °C 11.8 °C 1018.2 hPa NE 1.6 km/h 11.3 km/h 95 % 0.25 mm 0 W/m2
05:01 12.6 °C 11.8 °C 1018.2 hPa NE 1.6 km/h 11.3 km/h 95 % 0.25 mm 0 W/m2
05:06 12.5 °C 11.7 °C 1018.2 hPa Calm   6.4 km/h 95 % 0.25 mm 0 W/m2
05:11 12.4 °C 11.6 °C 1018.2 hPa Calm   6.4 km/h 95 % 0.25 mm 0 W/m2
05:16 12.4 °C 11.8 °C 1018.2 hPa Calm   4.8 km/h 96 % 0.25 mm 0 W/m2
05:21 12.5 °C 11.9 °C 1018.2 hPa NE 1.6 km/h 6.4 km/h 96 % 0.25 mm 0 W/m2
05:26 12.4 °C 11.8 °C 1018.2 hPa NNE 3.2 km/h 9.7 km/h 96 % 0.25 mm 0 W/m2
05:31 12.4 °C 11.8 °C 1018.2 hPa North 3.2 km/h 9.7 km/h 96 % 0.25 mm 0 W/m2
05:36 12.3 °C 11.7 °C 1018.2 hPa North 3.2 km/h 9.7 km/h 96 % 0.25 mm 5 W/m2
05:41 12.3 °C 11.7 °C 1018.2 hPa North 1.6 km/h 9.7 km/h 96 % 0.25 mm 7 W/m2
05:46 12.3 °C 11.7 °C 1018.2 hPa NNW 3.2 km/h 8 km/h 96 % 0.51 mm 11 W/m2
05:51 12.3 °C 11.7 °C 1018.2 hPa NNW 3.2 km/h 8 km/h 96 % 0.51 mm 11 W/m2
05:56 12.2 °C 11.6 °C 1017.8 hPa NNW 1.6 km/h 8 km/h 96 % 0.25 mm 14 W/m2
06:01 12.2 °C 11.6 °C 1017.8 hPa North 1.6 km/h 8 km/h 96 % 0.25 mm 11 W/m2
06:03 12.2 °C 11.6 °C 1017.8 hPa North 1.6 km/h 8 km/h 96 % 0.25 mm 11 W/m2
06:08 12.2 °C 11.6 °C 1017.8 hPa North 1.6 km/h 6.4 km/h 96 % 0.25 mm 11 W/m2
06:13 12.3 °C 11.7 °C 1017.8 hPa Calm   4.8 km/h 96 % 0.25 mm 7 W/m2
06:18 12.3 °C 11.7 °C 1017.8 hPa North 1.6 km/h 6.4 km/h 96 % 0.25 mm 9 W/m2
06:23 12.3 °C 11.7 °C 1017.8 hPa North 1.6 km/h 6.4 km/h 96 % 0.25 mm 16 W/m2
06:28 12.3 °C 11.7 °C 1017.8 hPa Calm   3.2 km/h 96 % 0.25 mm 21 W/m2
06:33 12.3 °C 11.7 °C 1017.8 hPa Calm   3.2 km/h 96 % 0.25 mm 12 W/m2
06:38 12.2 °C 11.6 °C 1017.8 hPa Calm   1.6 km/h 96 % 0.25 mm 21 W/m2
06:43 12.2 °C 11.6 °C 1017.8 hPa Calm   3.2 km/h 96 % 0 mm 37 W/m2
06:48 12.2 °C 11.6 °C 1017.5 hPa Calm   3.2 km/h 96 % 0 mm 70 W/m2
06:53 12.2 °C 11.6 °C 1017.8 hPa Calm   1.6 km/h 96 % 0 mm 111 W/m2
06:58 12.2 °C 11.6 °C 1017.8 hPa Calm   1.6 km/h 96 % 0 mm 93 W/m2
07:03 12.3 °C 11.7 °C 1017.8 hPa Calm   1.6 km/h 96 % 0 mm 69 W/m2
07:08 12.3 °C 11.7 °C 1017.8 hPa Calm   1.6 km/h 96 % 0 mm 47 W/m2
07:13 12.3 °C 11.7 °C 1017.8 hPa Calm     96 % 0 mm 60 W/m2
07:18 12.4 °C 11.8 °C 1017.8 hPa Calm   6.4 km/h 96 % 0 mm 70 W/m2
07:23 12.4 °C 11.8 °C 1017.8 hPa North 1.6 km/h 8 km/h 96 % 0 mm 63 W/m2
07:28 12.5 °C 11.9 °C 1017.8 hPa North 1.6 km/h 8 km/h 96 % 0 mm 93 W/m2
07:33 12.6 °C 12.1 °C 1017.8 hPa Calm   6.4 km/h 97 % 0 mm 86 W/m2
07:38 12.6 °C 12 °C 1017.8 hPa Calm   1.6 km/h 96 % 0 mm 72 W/m2
07:43 12.6 °C 12 °C 1017.8 hPa North 1.6 km/h 8 km/h 96 % 0 mm 58 W/m2
07:48 12.6 °C 12 °C 1017.5 hPa North 1.6 km/h 8 km/h 96 % 0 mm 84 W/m2
07:53 12.6 °C 12 °C 1017.5 hPa Calm   4.8 km/h 96 % 0 mm 88 W/m2
07:58 12.6 °C 12 °C 1017.5 hPa North 1.6 km/h 8 km/h 96 % 0 mm 76 W/m2
08:03 12.6 °C 12 °C 1017.5 hPa North 1.6 km/h 8 km/h 96 % 0 mm 76 W/m2
08:08 12.6 °C 12 °C 1017.5 hPa North 1.6 km/h 6.4 km/h 96 % 0 mm 107 W/m2
08:13 12.6 °C 12 °C 1017.5 hPa Calm   6.4 km/h 96 % 0 mm 104 W/m2
08:18 12.7 °C 12.1 °C 1017.5 hPa Calm   3.2 km/h 96 % 0 mm 109 W/m2
08:19 12.7 °C 12.1 °C 1017.5 hPa Calm   3.2 km/h 96 % 0 mm 100 W/m2
08:24 12.8 °C 12.2 °C 1017.5 hPa Calm   3.2 km/h 96 % 0 mm 104 W/m2
08:29 12.8 °C 12.2 °C 1017.5 hPa Calm   3.2 km/h 96 % 0 mm 113 W/m2
08:34 12.8 °C 12.2 °C 1017.5 hPa Calm   3.2 km/h 96 % 0 mm 97 W/m2
08:39 12.9 °C 12.3 °C 1017.5 hPa Calm   3.2 km/h 96 % 0 mm 69 W/m2
08:44 12.9 °C 12.3 °C 1017.5 hPa Calm   8 km/h 96 % 0 mm 37 W/m2
08:49 12.9 °C 12.3 °C 1017.5 hPa NNE 1.6 km/h 8 km/h 96 % 0 mm 44 W/m2
08:54 12.8 °C 12.2 °C 1017.5 hPa NNE 3.2 km/h 6.4 km/h 96 % 0 mm 65 W/m2
08:56 12.8 °C 12.2 °C 1017.5 hPa NNE 1.6 km/h 6.4 km/h 96 % 0 mm 84 W/m2
09:01 12.8 °C 12.2 °C 1017.5 hPa Calm   6.4 km/h 96 % 0 mm 149 W/m2
09:07 12.9 °C 12.3 °C 1017.5 hPa Calm   1.6 km/h 96 % 0 mm 151 W/m2
09:12 13 °C 12.4 °C 1017.2 hPa Calm   1.6 km/h 96 % 0 mm 120 W/m2
09:17 13.1 °C 12.5 °C 1017.2 hPa Calm   1.6 km/h 96 % 0 mm 88 W/m2
09:22 13.2 °C 12.6 °C 1017.2 hPa Calm   1.6 km/h 96 % 0 mm 83 W/m2
09:27 13.2 °C 12.6 °C 1017.2 hPa Calm     96 % 0 mm 114 W/m2
09:32 13.2 °C 12.6 °C 1017.2 hPa Calm     96 % 0 mm 113 W/m2
09:37 13.3 °C 12.7 °C 1017.2 hPa Calm     96 % 0 mm 114 W/m2
09:42 13.3 °C 12.7 °C 1017.2 hPa Calm   3.2 km/h 96 % 0 mm 113 W/m2
09:47 13.3 °C 12.5 °C 1017.2 hPa NE 1.6 km/h 6.4 km/h 95 % 0 mm 100 W/m2
09:52 13.2 °C 12.4 °C 1017.2 hPa NE 1.6 km/h 8 km/h 95 % 0 mm 167 W/m2
09:57 13.3 °C 12.7 °C 1016.8 hPa East 1.6 km/h 8 km/h 96 % 0 mm 185 W/m2
10:02 13.2 °C 12.4 °C 1016.8 hPa East 1.6 km/h 8 km/h 95 % 0 mm 158 W/m2
10:07 13.2 °C 12.4 °C 1016.8 hPa East 1.6 km/h 8 km/h 95 % 0 mm 167 W/m2
10:12 13.2 °C 12.4 °C 1016.8 hPa East 1.6 km/h 6.4 km/h 95 % 0 mm 149 W/m2
10:17 13.2 °C 12.4 °C 1016.5 hPa Calm   3.2 km/h 95 % 0 mm 162 W/m2
10:22 13.2 °C 12.4 °C 1016.5 hPa Calm   3.2 km/h 95 % 0 mm 227 W/m2
10:27 13.3 °C 12.5 °C 1016.5 hPa Calm   4.8 km/h 95 % 0 mm 125 W/m2
10:32 13.3 °C 12.5 °C 1016.5 hPa NE 1.6 km/h 6.4 km/h 95 % 0 mm 149 W/m2
10:37 13.4 °C 12.6 °C 1016.5 hPa Calm   6.4 km/h 95 % 0 mm 178 W/m2
10:42 13.4 °C 12.6 °C 1016.5 hPa Calm   3.2 km/h 95 % 0 mm 167 W/m2
10:47 13.5 °C 12.7 °C 1016.5 hPa WNW 1.6 km/h 9.7 km/h 95 % 0 mm 163 W/m2
10:52 13.4 °C 12.4 °C 1016.5 hPa WNW 6.4 km/h 16.1 km/h 94 % 0 mm 165 W/m2
10:57 13.1 °C 11.7 °C 1016.5 hPa WNW 9.7 km/h 16.1 km/h 91 % 0 mm 153 W/m2
11:02 13.1 °C 11.5 °C 1016.5 hPa WNW 9.7 km/h 16.1 km/h 90 % 0 mm 144 W/m2
11:07 13.1 °C 11.3 °C 1016.1 hPa West 8 km/h 14.5 km/h 89 % 0 mm 137 W/m2
11:12 13.2 °C 11.4 °C 1016.1 hPa West 4.8 km/h 11.3 km/h 89 % 0 mm 132 W/m2
11:17 13.2 °C 11.4 °C 1016.1 hPa WNW 4.8 km/h 11.3 km/h 89 % 0.25 mm 130 W/m2
11:22 13.2 °C 11.3 °C 1016.1 hPa WNW 4.8 km/h 9.7 km/h 88 % 0.25 mm 118 W/m2
11:27 13.1 °C 11 °C 1016.1 hPa West 4.8 km/h 12.9 km/h 87 % 0.25 mm 109 W/m2
11:32 12.9 °C 10.6 °C 1015.8 hPa WNW 6.4 km/h 14.5 km/h 86 % 0.25 mm 120 W/m2
11:37 12.9 °C 10.8 °C 1015.8 hPa WNW 6.4 km/h 14.5 km/h 87 % 0.51 mm 125 W/m2
11:42 12.8 °C 10.7 °C 1016.1 hPa WNW 6.4 km/h 12.9 km/h 87 % 0.51 mm 130 W/m2
11:47 12.8 °C 10.7 °C 1016.1 hPa WNW 8 km/h 12.9 km/h 87 % 0.51 mm 134 W/m2
11:52 12.7 °C 10.8 °C 1016.1 hPa WNW 8 km/h 14.5 km/h 88 % 0.51 mm 135 W/m2
11:57 12.6 °C 10.7 °C 1016.1 hPa WNW 9.7 km/h 14.5 km/h 88 % 0.51 mm 137 W/m2
12:02 12.6 °C 10.8 °C 1016.1 hPa WNW 9.7 km/h 14.5 km/h 89 % 0.76 mm 137 W/m2
12:07 12.6 °C 11 °C 1015.8 hPa WNW 9.7 km/h 14.5 km/h 90 % 0.76 mm 127 W/m2
12:13 12.5 °C 10.9 °C 1016.1 hPa WNW 9.7 km/h 14.5 km/h 90 % 0.76 mm 132 W/m2
12:18 12.5 °C 11.1 °C 1016.1 hPa WNW 8 km/h 12.9 km/h 91 % 0.76 mm 123 W/m2
12:23 12.6 °C 11.2 °C 1016.1 hPa WNW 8 km/h 12.9 km/h 91 % 1.02 mm 127 W/m2
12:28 12.5 °C 11.1 °C 1015.8 hPa WNW 8 km/h 12.9 km/h 91 % 1.02 mm 135 W/m2
12:33 12.5 °C 11.1 °C 1015.8 hPa WNW 6.4 km/h 12.9 km/h 91 % 1.27 mm 130 W/m2
12:38 12.5 °C 11.2 °C 1015.8 hPa WNW 3.2 km/h 9.7 km/h 92 % 1.02 mm 118 W/m2
12:43 12.5 °C 11.1 °C 1015.8 hPa WNW 3.2 km/h 9.7 km/h 91 % 1.27 mm 121 W/m2
12:48 12.4 °C 11.1 °C 1015.8 hPa WNW 3.2 km/h 9.7 km/h 92 % 1.27 mm 114 W/m2
12:53 12.4 °C 11.1 °C 1015.8 hPa WNW 4.8 km/h 12.9 km/h 92 % 1.27 mm 114 W/m2
12:58 12.3 °C 10.9 °C 1015.8 hPa WNW 6.4 km/h 12.9 km/h 91 % 1.27 mm 118 W/m2
13:03 12.1 °C 10.7 °C 1015.8 hPa WNW 6.4 km/h 12.9 km/h 91 % 1.27 mm 132 W/m2
13:08 12 °C 10.6 °C 1015.5 hPa WNW 6.4 km/h 12.9 km/h 91 % 1.27 mm 135 W/m2
13:13 12 °C 10.6 °C 1015.5 hPa WNW 6.4 km/h 11.3 km/h 91 % 1.27 mm 149 W/m2
13:18 12 °C 10.6 °C 1015.5 hPa WNW 6.4 km/h 12.9 km/h 91 % 1.27 mm 127 W/m2
13:23 11.9 °C 10.5 °C 1015.5 hPa WNW 6.4 km/h 12.9 km/h 91 % 1.02 mm 128 W/m2
13:28 11.9 °C 10.7 °C 1015.5 hPa WNW 4.8 km/h 11.3 km/h 92 % 1.02 mm 139 W/m2
13:33 11.9 °C 10.7 °C 1015.5 hPa NW 3.2 km/h 8 km/h 92 % 1.02 mm 132 W/m2
13:38 12 °C 10.7 °C 1015.5 hPa NW 3.2 km/h 8 km/h 92 % 1.02 mm 121 W/m2
13:43 12 °C 10.7 °C 1015.5 hPa NW 3.2 km/h 9.7 km/h 92 % 0.76 mm 120 W/m2
13:48 12.1 °C 10.8 °C 1015.5 hPa NW 3.2 km/h 9.7 km/h 92 % 1.02 mm 125 W/m2
13:53 12.1 °C 10.8 °C 1015.5 hPa NW 3.2 km/h 9.7 km/h 92 % 0.76 mm 125 W/m2
13:54 12.1 °C 10.8 °C 1015.5 hPa NW 3.2 km/h 9.7 km/h 92 % 0.76 mm 127 W/m2
13:59 12 °C 10.7 °C 1015.5 hPa NW 4.8 km/h 9.7 km/h 92 % 0.76 mm 114 W/m2
14:05 11.9 °C 10.7 °C 1015.5 hPa NW 3.2 km/h 9.7 km/h 92 % 0.76 mm 114 W/m2
14:07 11.9 °C 10.7 °C 1015.5 hPa NW 3.2 km/h 9.7 km/h 92 % 0.76 mm 113 W/m2
14:12 11.8 °C 10.4 °C 1015.5 hPa NNW 1.6 km/h 9.7 km/h 91 % 0.51 mm 113 W/m2
14:17 11.8 °C 10.4 °C 1015.1 hPa NNW 1.6 km/h 9.7 km/h 91 % 0.51 mm 120 W/m2
14:22 11.8 °C 10.4 °C 1015.1 hPa NW 3.2 km/h 9.7 km/h 91 % 0.76 mm 130 W/m2
14:27 11.8 °C 10.4 °C 1015.1 hPa NW 3.2 km/h 9.7 km/h 91 % 0.76 mm 134 W/m2
14:33 11.8 °C 10.4 °C 1015.1 hPa NW 1.6 km/h 9.7 km/h 91 % 0.51 mm 116 W/m2
14:38 11.8 °C 10.4 °C 1015.1 hPa NW 3.2 km/h 9.7 km/h 91 % 0.76 mm 121 W/m2
14:43 11.8 °C 10.4 °C 1015.1 hPa NW 3.2 km/h 9.7 km/h 91 % 0.76 mm 90 W/m2
14:44 11.8 °C 10.4 °C 1015.1 hPa NW 3.2 km/h 9.7 km/h 91 % 0.51 mm 84 W/m2
14:49 11.7 °C 10.3 °C 1014.8 hPa NW 3.2 km/h 9.7 km/h 91 % 0.51 mm 81 W/m2
14:54 11.6 °C 10 °C 1015.1 hPa NW 4.8 km/h 9.7 km/h 90 % 0.51 mm 74 W/m2
14:59 11.6 °C 10.2 °C 1015.1 hPa NW 3.2 km/h 9.7 km/h 91 % 0.76 mm 67 W/m2
15:04 11.6 °C 10.2 °C 1014.8 hPa NW 3.2 km/h 8 km/h 91 % 0.51 mm 69 W/m2
15:09 11.5 °C 9.9 °C 1014.8 hPa WNW 4.8 km/h 9.7 km/h 90 % 0.51 mm 67 W/m2
15:14 11.5 °C 10.1 °C 1014.8 hPa WNW 4.8 km/h 9.7 km/h 91 % 0.51 mm 72 W/m2
15:19 11.5 °C 10.1 °C 1014.8 hPa WNW 1.6 km/h 8 km/h 91 % 0.51 mm 72 W/m2
15:24 11.4 °C 10 °C 1014.8 hPa WNW 1.6 km/h 6.4 km/h 91 % 0.51 mm 63 W/m2
15:29 11.5 °C 10.2 °C 1014.8 hPa WNW 1.6 km/h 6.4 km/h 92 % 0.51 mm 65 W/m2
15:34 11.5 °C 10.2 °C 1014.8 hPa WNW 1.6 km/h 6.4 km/h 92 % 0.51 mm 63 W/m2
15:39 11.5 °C 10.2 °C 1014.4 hPa Calm   4.8 km/h 92 % 0.51 mm 72 W/m2
15:44 11.5 °C 10.2 °C 1014.4 hPa Calm   3.2 km/h 92 % 0.51 mm 72 W/m2
15:49 11.4 °C 10.2 °C 1014.4 hPa Calm   3.2 km/h 92 % 0.51 mm 83 W/m2
15:54 11.4 °C 10.3 °C 1014.4 hPa Calm   3.2 km/h 93 % 0.76 mm 84 W/m2
15:59 11.4 °C 10.3 °C 1014.1 hPa Calm   3.2 km/h 93 % 0.51 mm 86 W/m2
16:04 11.5 °C 10.4 °C 1014.1 hPa Calm   3.2 km/h 93 % 0.51 mm 84 W/m2
16:09 11.5 °C 10.4 °C 1014.1 hPa Calm   3.2 km/h 93 % 0.76 mm 84 W/m2
16:14 11.5 °C 10.4 °C 1014.1 hPa Calm   3.2 km/h 93 % 0.76 mm 77 W/m2
16:19 11.6 °C 10.7 °C 1013.8 hPa Calm     94 % 0.76 mm 72 W/m2
16:24 11.6 °C 10.7 °C 1013.8 hPa Calm     94 % 0.51 mm 72 W/m2
16:29 11.7 °C 10.8 °C 1013.8 hPa WNW 1.6 km/h 9.7 km/h 94 % 0.51 mm 81 W/m2
16:34 11.7 °C 10.8 °C 1013.4 hPa WNW 1.6 km/h 9.7 km/h 94 % 0.76 mm 83 W/m2
16:39 11.6 °C 10.7 °C 1013.4 hPa WNW 3.2 km/h 8 km/h 94 % 0.51 mm 88 W/m2
16:44 11.6 °C 10.7 °C 1013.4 hPa WNW 3.2 km/h 8 km/h 94 % 0.51 mm 95 W/m2
16:49 11.6 °C 10.7 °C 1013.4 hPa WNW 3.2 km/h 9.7 km/h 94 % 0.76 mm 93 W/m2
16:54 11.6 °C 10.7 °C 1013.4 hPa WNW 3.2 km/h 9.7 km/h 94 % 0.51 mm 97 W/m2
16:59 11.7 °C 10.8 °C 1013.4 hPa WNW 3.2 km/h 11.3 km/h 94 % 0.51 mm 98 W/m2
17:04 11.6 °C 10.5 °C 1013.4 hPa WNW 3.2 km/h 11.3 km/h 93 % 0.51 mm 86 W/m2
17:09 11.6 °C 10.5 °C 1013.4 hPa WNW 4.8 km/h 8 km/h 93 % 0.51 mm 83 W/m2
17:14 11.5 °C 10.4 °C 1013.4 hPa WNW 4.8 km/h 9.7 km/h 93 % 0.51 mm 88 W/m2
17:19 11.4 °C 10.3 °C 1013.1 hPa WNW 4.8 km/h 9.7 km/h 93 % 0.51 mm 95 W/m2
17:24 11.5 °C 10.4 °C 1013.1 hPa WNW 1.6 km/h 8 km/h 93 % 0.51 mm 91 W/m2
17:29 11.5 °C 10.4 °C 1013.1 hPa WNW 1.6 km/h 6.4 km/h 93 % 0.51 mm 84 W/m2
17:34 11.5 °C 10.4 °C 1013.1 hPa WNW 1.6 km/h 6.4 km/h 93 % 0.51 mm 81 W/m2
17:39 11.6 °C 10.5 °C 1013.1 hPa WNW 4.8 km/h 11.3 km/h 93 % 0.51 mm 81 W/m2
17:42 11.6 °C 10.5 °C 1013.1 hPa WNW 4.8 km/h 11.3 km/h 93 % 0.51 mm 79 W/m2
17:47 11.6 °C 10.7 °C 1013.1 hPa NW 3.2 km/h 11.3 km/h 94 % 0.51 mm 76 W/m2
17:52 11.6 °C 10.7 °C 1012.8 hPa NW 1.6 km/h 8 km/h 94 % 0.51 mm 62 W/m2
17:57 11.6 °C 10.7 °C 1012.8 hPa NW 1.6 km/h 8 km/h 94 % 0.51 mm 53 W/m2
18:02 11.6 °C 10.7 °C 1012.8 hPa NW 1.6 km/h 8 km/h 94 % 0.51 mm 46 W/m2
18:07 11.6 °C 10.7 °C 1013.1 hPa WNW 4.8 km/h 17.7 km/h 94 % 0.51 mm 63 W/m2
18:12 11.4 °C 10.3 °C 1013.1 hPa WNW 8 km/h 17.7 km/h 93 % 0.25 mm 63 W/m2
18:17 11.1 °C 9.7 °C 1013.1 hPa NW 9.7 km/h 16.1 km/h 91 % 0.25 mm 58 W/m2
18:22 10.9 °C 9.5 °C 1013.1 hPa NW 8 km/h 14.5 km/h 91 % 0.25 mm 42 W/m2
18:27 10.8 °C 9.4 °C 1013.1 hPa NW 4.8 km/h 9.7 km/h 91 % 0.25 mm 39 W/m2
18:32 10.7 °C 9.3 °C 1013.1 hPa NW 4.8 km/h 8 km/h 91 % 0.25 mm 35 W/m2
18:37 10.7 °C 9.3 °C 1013.1 hPa NW 1.6 km/h 8 km/h 91 % 0.25 mm 39 W/m2
18:39 10.7 °C 9.3 °C 1013.1 hPa NW 1.6 km/h 8 km/h 91 % 0 mm 39 W/m2
18:44 10.7 °C 9.3 °C 1013.1 hPa Calm   3.2 km/h 91 % 0 mm 42 W/m2
18:49 10.7 °C 9.3 °C 1012.8 hPa Calm     91 % 0.25 mm 39 W/m2
18:54 10.7 °C 9.3 °C 1012.8 hPa Calm     91 % 0.25 mm 32 W/m2
18:59 10.7 °C 9.3 °C 1012.8 hPa Calm     91 % 0.25 mm 28 W/m2
19:04 10.7 °C 9.3 °C 1012.8 hPa Calm     91 % 0.25 mm 26 W/m2
19:09 10.7 °C 9.3 °C 1012.4 hPa Calm     91 % 0.25 mm 30 W/m2
19:14 10.7 °C 9.4 °C 1012.8 hPa Calm     92 % 0.25 mm 28 W/m2
19:19 10.7 °C 9.4 °C 1012.4 hPa Calm     92 % 0.25 mm 28 W/m2
19:24 10.7 °C 9.4 °C 1012.4 hPa Calm     92 % 0.25 mm 26 W/m2
19:29 10.6 °C 9.3 °C 1012.4 hPa Calm     92 % 0.25 mm 25 W/m2
19:34 10.7 °C 9.4 °C 1012.4 hPa Calm     92 % 0.25 mm 25 W/m2
19:39 10.7 °C 9.4 °C 1012.4 hPa Calm     92 % 0.25 mm 19 W/m2
19:44 10.6 °C 9.3 °C 1012.4 hPa Calm     92 % 0.25 mm 16 W/m2
19:49 10.6 °C 9.3 °C 1012.4 hPa Calm     92 % 0 mm 16 W/m2
19:54 10.6 °C 9.3 °C 1012.4 hPa Calm     92 % 0 mm 16 W/m2
19:59 10.7 °C 9.6 °C 1012.4 hPa Calm     93 % 0 mm 16 W/m2
20:04 10.7 °C 9.6 °C 1012.4 hPa Calm   3.2 km/h 93 % 0 mm 14 W/m2
20:09 10.8 °C 9.7 °C 1012.4 hPa Calm   3.2 km/h 93 % 0 mm 18 W/m2
20:14 10.8 °C 9.9 °C 1012.4 hPa Calm   3.2 km/h 94 % 0 mm 14 W/m2
20:19 10.7 °C 9.8 °C 1012.4 hPa Calm     94 % 0 mm 12 W/m2
20:24 10.7 °C 9.8 °C 1012.4 hPa Calm     94 % 0 mm 11 W/m2
20:29 10.6 °C 9.7 °C 1012.4 hPa Calm     94 % 0 mm 9 W/m2
20:34 10.6 °C 9.7 °C 1012.4 hPa Calm     94 % 0 mm 9 W/m2
20:39 10.6 °C 9.7 °C 1012.4 hPa Calm     94 % 0 mm 12 W/m2
20:44 10.5 °C 9.6 °C 1012.4 hPa Calm     94 % 0 mm 11 W/m2
20:49 10.4 °C 9.5 °C 1012.4 hPa Calm     94 % 0 mm 11 W/m2
20:54 10.4 °C 9.5 °C 1012.4 hPa Calm     94 % 0 mm 9 W/m2
20:59 10.3 °C 9.4 °C 1012.4 hPa Calm     94 % 0 mm 9 W/m2
21:04 10.3 °C 9.4 °C 1012.4 hPa Calm     94 % 0 mm 7 W/m2
21:09 10.3 °C 9.4 °C 1012.4 hPa Calm     94 % 0 mm 5 W/m2
21:14 10.3 °C 9.4 °C 1012.4 hPa Calm     94 % 0 mm 0 W/m2
21:19 10.3 °C 9.4 °C 1012.4 hPa Calm     94 % 0 mm 0 W/m2
21:25 10.3 °C 9.4 °C 1012.1 hPa Calm     94 % 0 mm 0 W/m2
21:30 10.3 °C 9.4 °C 1012.4 hPa Calm     94 % 0 mm 0 W/m2
21:35 10.3 °C 9.4 °C 1012.1 hPa Calm     94 % 0 mm 0 W/m2
21:40 10.3 °C 9.4 °C 1012.1 hPa Calm     94 % 0 mm 0 W/m2
21:45 10.3 °C 9.4 °C 1012.1 hPa Calm     94 % 0 mm 0 W/m2
21:50 10.2 °C 9.3 °C 1012.1 hPa Calm     94 % 0 mm 0 W/m2
21:55 10.2 °C 9.4 °C 1012.1 hPa Calm     95 % 0 mm 0 W/m2
22:00 10.2 °C 9.4 °C 1012.1 hPa Calm     95 % 0 mm 0 W/m2
22:05 10.2 °C 9.4 °C 1011.7 hPa Calm     95 % 0 mm 0 W/m2
22:10 10.2 °C 9.4 °C 1011.7 hPa Calm     95 % 0 mm 0 W/m2
22:15 10.2 °C 9.4 °C 1011.7 hPa Calm     95 % 0 mm 0 W/m2
22:20 10.1 °C 9.3 °C 1011.7 hPa Calm     95 % 0 mm 0 W/m2
22:25 10.1 °C 9.3 °C 1011.7 hPa Calm     95 % 0 mm 0 W/m2
22:30 10.1 °C 9.3 °C 1011.7 hPa Calm   3.2 km/h 95 % 0 mm 0 W/m2
22:35 10.2 °C 9.4 °C 1011.7 hPa Calm   3.2 km/h 95 % 0 mm 0 W/m2
22:40 10.1 °C 9.3 °C 1011.7 hPa Calm   4.8 km/h 95 % 0 mm 0 W/m2
22:45 10.1 °C 9.3 °C 1011.7 hPa Calm   4.8 km/h 95 % 0 mm 0 W/m2
22:50 10.1 °C 9.3 °C 1011.7 hPa Calm     95 % 0 mm 0 W/m2
22:55 10 °C 9.2 °C 1011.7 hPa Calm     95 % 0 mm 0 W/m2
23:00 9.9 °C 9.1 °C 1011.7 hPa Calm   1.6 km/h 95 % 0 mm 0 W/m2
23:05 9.8 °C 9.1 °C 1011.7 hPa Calm   3.2 km/h 95 % 0 mm 0 W/m2
23:10 9.8 °C 9.1 °C 1011.7 hPa Calm   4.8 km/h 95 % 0 mm 0 W/m2
23:11 9.8 °C 9.1 °C 1011.7 hPa Calm   4.8 km/h 95 % 0 mm 0 W/m2
23:16 9.7 °C 8.9 °C 1011.7 hPa NW 1.6 km/h 6.4 km/h 95 % 0 mm 0 W/m2
23:21 9.7 °C 8.9 °C 1011.4 hPa NW 1.6 km/h 6.4 km/h 95 % 0 mm 0 W/m2
23:26 9.7 °C 8.9 °C 1011.4 hPa Calm   6.4 km/h 95 % 0 mm 0 W/m2
23:31 9.6 °C 8.8 °C 1011.4 hPa Calm   6.4 km/h 95 % 0 mm 0 W/m2
23:36 9.6 °C 8.8 °C 1011.4 hPa Calm   6.4 km/h 95 % 0 mm 0 W/m2
23:41 9.4 °C 8.7 °C 1011.4 hPa Calm   6.4 km/h 95 % 0 mm 0 W/m2
23:43 9.4 °C 8.7 °C 1011.4 hPa NW 1.6 km/h 6.4 km/h 95 % 0 mm 0 W/m2
23:46 9.4 °C 8.7 °C 1011.4 hPa NW 1.6 km/h 8 km/h 95 % 0 mm 0 W/m2
23:51 9.3 °C 8.6 °C 1011.4 hPa WNW 4.8 km/h 11.3 km/h 95 % 0 mm 0 W/m2
23:56 9.1 °C 8.3 °C 1011.4 hPa WNW 6.4 km/h 12.9 km/h 95 % 0 mm 0 W/m2
Delerius-Weather
Compliments of Weather Underground - 2.25 mb

Data updates at regular intervals.